Callaway, Virginia
Current Conditions -  °F | °C
As of 7:54 PM on Monday 20 Oct 2014 (Local Time) from KROA Reporting Station
Overcast Overcast  
Wind Chill: 63°   Ceiling: 8000
Heat Index: 63°   Visibility: 10mi
Dew Point: 39°   Wind: 15mph
Humidity: 41%   Direction: 250°WSW
Pressure: 29.98"   Gusts: 22mph
Location:  37.01°N, 80.05°W
Report Text: KROA 202354Z 25013G19KT 10SM FEW055 BKN080 OVC100 17/04 A2998 RMK AO2 SLP151 60000 T01720039 10200 20167 53007
Loading
Personal Weather Stations






























Interactive Weather Map
Tropical Storm Tracking
New forecast layout! Learn more

10-Day Weather Forecast

Advertisements
Track Severe Weather on mobile